sensor_id;sensor_type;location;lat;lon;timestamp;temperature;humidity
52513;DHT22;38422;53.172;6.974;2022-07-06T00:00:06;17.70;94.80
52513;DHT22;38422;53.172;6.974;2022-07-06T00:02:32;17.50;95.00
52513;DHT22;38422;53.172;6.974;2022-07-06T00:04:57;17.50;95.10
52513;DHT22;38422;53.172;6.974;2022-07-06T00:07:23;17.50;95.20
52513;DHT22;38422;53.172;6.974;2022-07-06T00:09:49;17.50;95.30
52513;DHT22;38422;53.172;6.974;2022-07-06T00:12:15;17.50;95.50
52513;DHT22;38422;53.172;6.974;2022-07-06T00:14:41;17.50;95.50
52513;DHT22;38422;53.172;6.974;2022-07-06T00:17:07;17.50;95.60
52513;DHT22;38422;53.172;6.974;2022-07-06T00:19:32;17.50;95.60
52513;DHT22;38422;53.172;6.974;2022-07-06T00:21:58;17.40;95.60
52513;DHT22;38422;53.172;6.974;2022-07-06T00:24:24;17.40;95.80
52513;DHT22;38422;53.172;6.974;2022-07-06T00:26:50;17.40;96.10
52513;DHT22;38422;53.172;6.974;2022-07-06T00:29:15;17.40;96.20
52513;DHT22;38422;53.172;6.974;2022-07-06T00:31:41;17.30;96.10
52513;DHT22;38422;53.172;6.974;2022-07-06T00:34:07;17.30;96.20
52513;DHT22;38422;53.172;6.974;2022-07-06T00:36:32;17.30;96.10
52513;DHT22;38422;53.172;6.974;2022-07-06T00:38:58;17.30;96.10
52513;DHT22;38422;53.172;6.974;2022-07-06T00:41:24;17.30;96.00
52513;DHT22;38422;53.172;6.974;2022-07-06T00:43:54;17.30;96.00
52513;DHT22;38422;53.172;6.974;2022-07-06T00:46:25;17.30;96.00
52513;DHT22;38422;53.172;6.974;2022-07-06T00:48:52;17.30;95.70
52513;DHT22;38422;53.172;6.974;2022-07-06T00:51:17;17.30;95.40
52513;DHT22;38422;53.172;6.974;2022-07-06T00:53:44;17.30;95.30
52513;DHT22;38422;53.172;6.974;2022-07-06T00:56:10;17.30;95.10
52513;DHT22;38422;53.172;6.974;2022-07-06T00:58:36;17.30;94.90
52513;DHT22;38422;53.172;6.974;2022-07-06T01:01:02;17.30;94.80
52513;DHT22;38422;53.172;6.974;2022-07-06T01:03:27;17.30;94.80
52513;DHT22;38422;53.172;6.974;2022-07-06T01:05:54;17.30;94.80
52513;DHT22;38422;53.172;6.974;2022-07-06T01:08:20;17.30;94.70
52513;DHT22;38422;53.172;6.974;2022-07-06T01:10:46;17.30;94.70
52513;DHT22;38422;53.172;6.974;2022-07-06T01:13:11;17.30;94.60
52513;DHT22;38422;53.172;6.974;2022-07-06T01:15:37;17.30;94.60
52513;DHT22;38422;53.172;6.974;2022-07-06T01:18:04;17.20;94.70
52513;DHT22;38422;53.172;6.974;2022-07-06T01:20:30;17.20;94.70
52513;DHT22;38422;53.172;6.974;2022-07-06T01:22:59;17.20;94.80
52513;DHT22;38422;53.172;6.974;2022-07-06T01:25:24;17.20;95.00
52513;DHT22;38422;53.172;6.974;2022-07-06T01:27:50;17.20;94.90
52513;DHT22;38422;53.172;6.974;2022-07-06T01:30:17;17.20;95.00
52513;DHT22;38422;53.172;6.974;2022-07-06T01:32:43;17.10;94.80
52513;DHT22;38422;53.172;6.974;2022-07-06T01:35:14;17.10;94.80
52513;DHT22;38422;53.172;6.974;2022-07-06T01:37:40;17.00;94.90
52513;DHT22;38422;53.172;6.974;2022-07-06T01:40:08;17.00;95.00
52513;DHT22;38422;53.172;6.974;2022-07-06T01:42:34;17.00;95.00
52513;DHT22;38422;53.172;6.974;2022-07-06T01:45:00;16.90;95.10
52513;DHT22;38422;53.172;6.974;2022-07-06T01:47:26;16.90;95.10
52513;DHT22;38422;53.172;6.974;2022-07-06T01:49:52;16.90;95.30
52513;DHT22;38422;53.172;6.974;2022-07-06T01:52:18;16.90;95.40
52513;DHT22;38422;53.172;6.974;2022-07-06T01:54:44;16.90;95.40
52513;DHT22;38422;53.172;6.974;2022-07-06T01:57:10;16.90;95.50
52513;DHT22;38422;53.172;6.974;2022-07-06T01:59:36;16.90;95.60
52513;DHT22;38422;53.172;6.974;2022-07-06T02:02:01;16.80;95.90
52513;DHT22;38422;53.172;6.974;2022-07-06T02:04:27;16.80;95.80
52513;DHT22;38422;53.172;6.974;2022-07-06T02:06:53;16.80;95.90
52513;DHT22;38422;53.172;6.974;2022-07-06T02:09:18;16.80;96.10
52513;DHT22;38422;53.172;6.974;2022-07-06T02:11:44;16.80;96.30
52513;DHT22;38422;53.172;6.974;2022-07-06T02:14:10;16.80;96.40
52513;DHT22;38422;53.172;6.974;2022-07-06T02:16:35;16.80;96.40
52513;DHT22;38422;53.172;6.974;2022-07-06T02:19:01;16.80;96.60
52513;DHT22;38422;53.172;6.974;2022-07-06T02:21:27;16.80;96.80
52513;DHT22;38422;53.172;6.974;2022-07-06T02:23:52;16.80;96.90
52513;DHT22;38422;53.172;6.974;2022-07-06T02:26:18;16.80;96.90
52513;DHT22;38422;53.172;6.974;2022-07-06T02:28:44;16.80;96.90
52513;DHT22;38422;53.172;6.974;2022-07-06T02:31:11;16.80;96.90
52513;DHT22;38422;53.172;6.974;2022-07-06T02:33:39;16.80;97.00
52513;DHT22;38422;53.172;6.974;2022-07-06T02:36:04;16.80;97.00
52513;DHT22;38422;53.172;6.974;2022-07-06T02:38:30;16.70;97.10
52513;DHT22;38422;53.172;6.974;2022-07-06T02:40:56;16.70;97.10
52513;DHT22;38422;53.172;6.974;2022-07-06T02:43:21;16.80;97.10
52513;DHT22;38422;53.172;6.974;2022-07-06T02:45:47;16.70;97.00
52513;DHT22;38422;53.172;6.974;2022-07-06T02:48:13;16.70;97.00
52513;DHT22;38422;53.172;6.974;2022-07-06T02:50:38;16.70;97.10
52513;DHT22;38422;53.172;6.974;2022-07-06T02:53:04;16.70;97.20
52513;DHT22;38422;53.172;6.974;2022-07-06T02:55:30;16.70;97.10
52513;DHT22;38422;53.172;6.974;2022-07-06T02:57:55;16.70;97.10
52513;DHT22;38422;53.172;6.974;2022-07-06T03:00:21;16.70;97.20
52513;DHT22;38422;53.172;6.974;2022-07-06T03:02:47;16.70;97.10
52513;DHT22;38422;53.172;6.974;2022-07-06T03:05:12;16.70;97.30
52513;DHT22;38422;53.172;6.974;2022-07-06T03:07:38;16.60;97.00
52513;DHT22;38422;53.172;6.974;2022-07-06T03:10:04;16.60;97.00
52513;DHT22;38422;53.172;6.974;2022-07-06T03:12:30;16.60;96.90
52513;DHT22;38422;53.172;6.974;2022-07-06T03:14:55;16.60;96.90
52513;DHT22;38422;53.172;6.974;2022-07-06T03:17:21;16.50;96.90
52513;DHT22;38422;53.172;6.974;2022-07-06T03:19:47;16.40;97.00
52513;DHT22;38422;53.172;6.974;2022-07-06T03:22:12;16.40;97.00
52513;DHT22;38422;53.172;6.974;2022-07-06T03:24:38;16.30;97.00
52513;DHT22;38422;53.172;6.974;2022-07-06T03:27:04;16.30;97.10
52513;DHT22;38422;53.172;6.974;2022-07-06T03:29:29;16.20;97.10
52513;DHT22;38422;53.172;6.974;2022-07-06T03:31:55;16.20;97.10
52513;DHT22;38422;53.172;6.974;2022-07-06T03:34:21;16.20;97.10
52513;DHT22;38422;53.172;6.974;2022-07-06T03:36:46;16.10;97.00
52513;DHT22;38422;53.172;6.974;2022-07-06T03:39:12;16.10;97.00
52513;DHT22;38422;53.172;6.974;2022-07-06T03:41:37;16.10;97.00
52513;DHT22;38422;53.172;6.974;2022-07-06T03:44:03;16.00;96.90
52513;DHT22;38422;53.172;6.974;2022-07-06T03:46:29;16.00;96.90
52513;DHT22;38422;53.172;6.974;2022-07-06T03:48:55;15.90;96.90
52513;DHT22;38422;53.172;6.974;2022-07-06T03:51:20;16.00;97.10
52513;DHT22;38422;53.172;6.974;2022-07-06T03:53:46;15.90;96.90
52513;DHT22;38422;53.172;6.974;2022-07-06T03:56:12;15.90;97.00
52513;DHT22;38422;53.172;6.974;2022-07-06T03:58:53;15.80;97.00
52513;DHT22;38422;53.172;6.974;2022-07-06T04:01:19;15.80;97.10
52513;DHT22;38422;53.172;6.974;2022-07-06T04:03:45;15.70;97.20
52513;DHT22;38422;53.172;6.974;2022-07-06T04:06:10;15.70;97.30
52513;DHT22;38422;53.172;6.974;2022-07-06T04:08:36;15.70;97.40
52513;DHT22;38422;53.172;6.974;2022-07-06T04:11:03;15.70;97.50
52513;DHT22;38422;53.172;6.974;2022-07-06T04:13:28;15.60;97.50
52513;DHT22;38422;53.172;6.974;2022-07-06T04:15:54;15.50;97.60
52513;DHT22;38422;53.172;6.974;2022-07-06T04:18:20;15.50;97.80
52513;DHT22;38422;53.172;6.974;2022-07-06T04:20:45;15.40;97.80
52513;DHT22;38422;53.172;6.974;2022-07-06T04:23:11;15.30;98.10
52513;DHT22;38422;53.172;6.974;2022-07-06T04:25:37;15.30;98.30
52513;DHT22;38422;53.172;6.974;2022-07-06T04:28:03;15.10;98.50
52513;DHT22;38422;53.172;6.974;2022-07-06T04:30:29;15.10;98.80
52513;DHT22;38422;53.172;6.974;2022-07-06T04:32:54;15.00;98.90
52513;DHT22;38422;53.172;6.974;2022-07-06T04:35:21;15.00;99.10
52513;DHT22;38422;53.172;6.974;2022-07-06T04:37:46;15.10;99.20
52513;DHT22;38422;53.172;6.974;2022-07-06T04:40:13;15.10;99.40
52513;DHT22;38422;53.172;6.974;2022-07-06T04:42:39;15.10;99.70
52513;DHT22;38422;53.172;6.974;2022-07-06T04:45:05;15.10;99.80
52513;DHT22;38422;53.172;6.974;2022-07-06T04:47:31;15.10;99.90
52513;DHT22;38422;53.172;6.974;2022-07-06T04:49:57;15.10;99.90
52513;DHT22;38422;53.172;6.974;2022-07-06T04:52:22;15.10;99.90
52513;DHT22;38422;53.172;6.974;2022-07-06T04:54:48;15.10;99.90
52513;DHT22;38422;53.172;6.974;2022-07-06T04:57:14;15.10;99.90
52513;DHT22;38422;53.172;6.974;2022-07-06T04:59:39;15.10;99.90
52513;DHT22;38422;53.172;6.974;2022-07-06T05:02:05;15.20;99.90
52513;DHT22;38422;53.172;6.974;2022-07-06T05:04:31;15.20;99.90
52513;DHT22;38422;53.172;6.974;2022-07-06T05:06:57;15.20;99.90
52513;DHT22;38422;53.172;6.974;2022-07-06T05:09:22;15.20;99.90
52513;DHT22;38422;53.172;6.974;2022-07-06T05:11:48;15.30;99.90
52513;DHT22;38422;53.172;6.974;2022-07-06T05:14:13;15.40;99.90
52513;DHT22;38422;53.172;6.974;2022-07-06T05:16:39;15.50;99.90
52513;DHT22;38422;53.172;6.974;2022-07-06T05:19:05;15.50;99.90
52513;DHT22;38422;53.172;6.974;2022-07-06T05:21:31;15.50;99.90
52513;DHT22;38422;53.172;6.974;2022-07-06T05:23:56;15.50;99.90
52513;DHT22;38422;53.172;6.974;2022-07-06T05:26:22;15.60;99.90
52513;DHT22;38422;53.172;6.974;2022-07-06T05:28:47;15.60;99.90
52513;DHT22;38422;53.172;6.974;2022-07-06T05:31:13;15.60;99.90
52513;DHT22;38422;53.172;6.974;2022-07-06T05:33:39;15.70;99.90
52513;DHT22;38422;53.172;6.974;2022-07-06T05:36:05;15.80;99.90
52513;DHT22;38422;53.172;6.974;2022-07-06T05:38:30;15.90;99.90
52513;DHT22;38422;53.172;6.974;2022-07-06T05:40:56;15.90;99.90
52513;DHT22;38422;53.172;6.974;2022-07-06T05:43:22;15.90;99.90
52513;DHT22;38422;53.172;6.974;2022-07-06T05:45:47;15.90;99.90
52513;DHT22;38422;53.172;6.974;2022-07-06T05:48:13;16.00;99.90
52513;DHT22;38422;53.172;6.974;2022-07-06T05:50:57;16.10;99.90
52513;DHT22;38422;53.172;6.974;2022-07-06T05:53:23;16.10;99.70
52513;DHT22;38422;53.172;6.974;2022-07-06T05:55:48;16.20;99.40
52513;DHT22;38422;53.172;6.974;2022-07-06T05:58:14;16.30;99.20
52513;DHT22;38422;53.172;6.974;2022-07-06T06:00:40;16.40;98.90
52513;DHT22;38422;53.172;6.974;2022-07-06T06:03:06;16.50;98.60
52513;DHT22;38422;53.172;6.974;2022-07-06T06:05:31;16.50;98.00
52513;DHT22;38422;53.172;6.974;2022-07-06T06:07:57;16.60;97.90
52513;DHT22;38422;53.172;6.974;2022-07-06T06:10:23;16.70;97.60
52513;DHT22;38422;53.172;6.974;2022-07-06T06:12:49;16.80;97.40
52513;DHT22;38422;53.172;6.974;2022-07-06T06:15:15;16.80;97.10
52513;DHT22;38422;53.172;6.974;2022-07-06T06:17:41;16.90;97.00
52513;DHT22;38422;53.172;6.974;2022-07-06T06:20:10;17.00;96.70
52513;DHT22;38422;53.172;6.974;2022-07-06T06:22:51;17.10;96.20
52513;DHT22;38422;53.172;6.974;2022-07-06T06:25:19;17.20;95.90
52513;DHT22;38422;53.172;6.974;2022-07-06T06:27:45;17.30;95.90
52513;DHT22;38422;53.172;6.974;2022-07-06T06:30:12;17.20;95.60
52513;DHT22;38422;53.172;6.974;2022-07-06T06:32:38;17.30;95.40
52513;DHT22;38422;53.172;6.974;2022-07-06T06:35:04;17.10;95.10
52513;DHT22;38422;53.172;6.974;2022-07-06T06:37:30;17.00;95.80
52513;DHT22;38422;53.172;6.974;2022-07-06T06:39:56;17.00;96.50
52513;DHT22;38422;53.172;6.974;2022-07-06T06:42:21;17.00;96.60
52513;DHT22;38422;53.172;6.974;2022-07-06T06:44:47;16.90;96.90
52513;DHT22;38422;53.172;6.974;2022-07-06T06:47:13;16.90;97.10
52513;DHT22;38422;53.172;6.974;2022-07-06T06:49:38;16.90;97.20
52513;DHT22;38422;53.172;6.974;2022-07-06T06:52:04;16.90;97.20
52513;DHT22;38422;53.172;6.974;2022-07-06T06:54:30;16.90;97.40
52513;DHT22;38422;53.172;6.974;2022-07-06T06:56:55;16.90;97.40
52513;DHT22;38422;53.172;6.974;2022-07-06T06:59:21;16.90;97.30
52513;DHT22;38422;53.172;6.974;2022-07-06T07:01:47;16.90;97.10
52513;DHT22;38422;53.172;6.974;2022-07-06T07:04:13;16.90;97.30
52513;DHT22;38422;53.172;6.974;2022-07-06T07:06:39;16.90;97.10
52513;DHT22;38422;53.172;6.974;2022-07-06T07:09:04;16.90;97.40
52513;DHT22;38422;53.172;6.974;2022-07-06T07:11:30;16.90;97.60
52513;DHT22;38422;53.172;6.974;2022-07-06T07:13:56;16.90;97.70
52513;DHT22;38422;53.172;6.974;2022-07-06T07:16:22;16.90;97.90
52513;DHT22;38422;53.172;6.974;2022-07-06T07:18:50;16.90;98.20
52513;DHT22;38422;53.172;6.974;2022-07-06T07:21:16;16.90;98.50
52513;DHT22;38422;53.172;6.974;2022-07-06T07:23:41;16.90;98.80
52513;DHT22;38422;53.172;6.974;2022-07-06T07:26:07;16.90;98.80
52513;DHT22;38422;53.172;6.974;2022-07-06T07:28:33;16.90;99.00
52513;DHT22;38422;53.172;6.974;2022-07-06T07:30:59;17.00;99.20
52513;DHT22;38422;53.172;6.974;2022-07-06T07:33:24;17.00;99.30
52513;DHT22;38422;53.172;6.974;2022-07-06T07:35:50;17.00;99.30
52513;DHT22;38422;53.172;6.974;2022-07-06T07:38:15;16.90;99.30
52513;DHT22;38422;53.172;6.974;2022-07-06T07:40:41;16.80;99.40
52513;DHT22;38422;53.172;6.974;2022-07-06T07:43:07;16.80;99.70
52513;DHT22;38422;53.172;6.974;2022-07-06T07:45:32;16.80;99.90
52513;DHT22;38422;53.172;6.974;2022-07-06T07:47:58;16.70;99.90
52513;DHT22;38422;53.172;6.974;2022-07-06T07:50:24;16.70;99.90
52513;DHT22;38422;53.172;6.974;2022-07-06T07:52:49;16.70;99.90
52513;DHT22;38422;53.172;6.974;2022-07-06T07:55:15;16.90;99.90
52513;DHT22;38422;53.172;6.974;2022-07-06T07:57:41;17.00;99.90
52513;DHT22;38422;53.172;6.974;2022-07-06T08:00:07;17.30;99.90
52513;DHT22;38422;53.172;6.974;2022-07-06T08:02:33;17.60;99.90
52513;DHT22;38422;53.172;6.974;2022-07-06T08:04:58;17.80;99.90
52513;DHT22;38422;53.172;6.974;2022-07-06T08:07:24;18.10;99.90
52513;DHT22;38422;53.172;6.974;2022-07-06T08:09:49;18.30;99.00
52513;DHT22;38422;53.172;6.974;2022-07-06T08:12:15;18.50;98.50
52513;DHT22;38422;53.172;6.974;2022-07-06T08:14:41;18.60;98.10
52513;DHT22;38422;53.172;6.974;2022-07-06T08:17:06;18.70;97.60
52513;DHT22;38422;53.172;6.974;2022-07-06T08:19:32;18.70;97.30
52513;DHT22;38422;53.172;6.974;2022-07-06T08:21:58;18.80;96.70
52513;DHT22;38422;53.172;6.974;2022-07-06T08:24:23;18.80;96.00
52513;DHT22;38422;53.172;6.974;2022-07-06T08:26:49;18.80;96.00
52513;DHT22;38422;53.172;6.974;2022-07-06T08:29:15;18.90;95.80
52513;DHT22;38422;53.172;6.974;2022-07-06T08:31:40;19.10;95.80
52513;DHT22;38422;53.172;6.974;2022-07-06T08:34:06;19.20;95.60
52513;DHT22;38422;53.172;6.974;2022-07-06T08:36:32;19.40;95.00
52513;DHT22;38422;53.172;6.974;2022-07-06T08:38:58;19.40;94.80
52513;DHT22;38422;53.172;6.974;2022-07-06T08:41:26;19.40;94.80
52513;DHT22;38422;53.172;6.974;2022-07-06T08:43:53;19.10;94.10
52513;DHT22;38422;53.172;6.974;2022-07-06T08:46:20;19.00;94.30
52513;DHT22;38422;53.172;6.974;2022-07-06T08:48:48;19.10;94.50
52513;DHT22;38422;53.172;6.974;2022-07-06T08:51:14;19.10;94.00
52513;DHT22;38422;53.172;6.974;2022-07-06T08:53:44;19.00;93.50
52513;DHT22;38422;53.172;6.974;2022-07-06T08:56:12;19.20;93.70
52513;DHT22;38422;53.172;6.974;2022-07-06T08:58:38;19.20;92.50
52513;DHT22;38422;53.172;6.974;2022-07-06T09:01:11;19.40;92.80
52513;DHT22;38422;53.172;6.974;2022-07-06T09:03:40;19.50;92.30
52513;DHT22;38422;53.172;6.974;2022-07-06T09:06:07;19.60;92.30
52513;DHT22;38422;53.172;6.974;2022-07-06T09:08:33;19.80;92.20
52513;DHT22;38422;53.172;6.974;2022-07-06T09:11:02;20.00;92.10
52513;DHT22;38422;53.172;6.974;2022-07-06T09:13:28;20.00;91.40
52513;DHT22;38422;53.172;6.974;2022-07-06T09:15:53;20.10;91.50
52513;DHT22;38422;53.172;6.974;2022-07-06T09:18:21;20.20;91.10
52513;DHT22;38422;53.172;6.974;2022-07-06T09:20:47;20.20;90.70
52513;DHT22;38422;53.172;6.974;2022-07-06T09:23:15;20.20;90.50
52513;DHT22;38422;53.172;6.974;2022-07-06T09:25:42;20.20;90.50
52513;DHT22;38422;53.172;6.974;2022-07-06T09:28:08;20.20;90.30
52513;DHT22;38422;53.172;6.974;2022-07-06T09:30:34;20.30;90.10
52513;DHT22;38422;53.172;6.974;2022-07-06T09:33:02;20.40;90.10
52513;DHT22;38422;53.172;6.974;2022-07-06T09:35:36;20.50;90.20
52513;DHT22;38422;53.172;6.974;2022-07-06T09:38:12;20.70;88.30
52513;DHT22;38422;53.172;6.974;2022-07-06T09:40:42;20.70;87.10
52513;DHT22;38422;53.172;6.974;2022-07-06T09:43:17;20.70;87.10
52513;DHT22;38422;53.172;6.974;2022-07-06T09:45:49;20.80;85.30
52513;DHT22;38422;53.172;6.974;2022-07-06T09:48:19;20.90;87.10
52513;DHT22;38422;53.172;6.974;2022-07-06T09:50:53;21.10;86.60
52513;DHT22;38422;53.172;6.974;2022-07-06T09:53:21;21.30;85.80
52513;DHT22;38422;53.172;6.974;2022-07-06T09:55:48;21.60;85.60
52513;DHT22;38422;53.172;6.974;2022-07-06T09:58:14;22.00;85.50
52513;DHT22;38422;53.172;6.974;2022-07-06T10:00:41;22.30;82.20
52513;DHT22;38422;53.172;6.974;2022-07-06T10:03:07;22.70;84.70
52513;DHT22;38422;53.172;6.974;2022-07-06T10:05:40;23.00;83.60
52513;DHT22;38422;53.172;6.974;2022-07-06T10:08:07;23.30;81.80
52513;DHT22;38422;53.172;6.974;2022-07-06T10:10:39;23.40;81.10
52513;DHT22;38422;53.172;6.974;2022-07-06T10:13:05;23.40;80.30
52513;DHT22;38422;53.172;6.974;2022-07-06T10:15:32;23.50;80.80
52513;DHT22;38422;53.172;6.974;2022-07-06T10:18:04;23.50;79.80
52513;DHT22;38422;53.172;6.974;2022-07-06T10:20:31;23.50;80.20
52513;DHT22;38422;53.172;6.974;2022-07-06T10:22:59;23.40;80.30
52513;DHT22;38422;53.172;6.974;2022-07-06T10:25:25;23.20;80.70
52513;DHT22;38422;53.172;6.974;2022-07-06T10:27:52;23.00;80.90
52513;DHT22;38422;53.172;6.974;2022-07-06T10:30:18;22.80;81.60
52513;DHT22;38422;53.172;6.974;2022-07-06T10:32:46;22.60;81.90
52513;DHT22;38422;53.172;6.974;2022-07-06T10:35:13;22.60;82.70
52513;DHT22;38422;53.172;6.974;2022-07-06T10:37:39;22.60;82.90
52513;DHT22;38422;53.172;6.974;2022-07-06T10:40:05;22.70;82.80
52513;DHT22;38422;53.172;6.974;2022-07-06T10:42:56;22.90;82.70
52513;DHT22;38422;53.172;6.974;2022-07-06T10:50:50;23.90;79.00
52513;DHT22;38422;53.172;6.974;2022-07-06T10:53:25;24.10;79.40
52513;DHT22;38422;53.172;6.974;2022-07-06T10:55:53;24.30;80.80
52513;DHT22;38422;53.172;6.974;2022-07-06T10:58:39;24.60;80.10
52513;DHT22;38422;53.172;6.974;2022-07-06T11:01:07;25.00;75.90
52513;DHT22;38422;53.172;6.974;2022-07-06T11:03:41;25.20;78.00
52513;DHT22;38422;53.172;6.974;2022-07-06T11:08:50;25.20;76.10
52513;DHT22;38422;53.172;6.974;2022-07-06T11:11:17;25.30;75.30
52513;DHT22;38422;53.172;6.974;2022-07-06T11:16:25;24.50;75.40
52513;DHT22;38422;53.172;6.974;2022-07-06T11:19:11;24.10;77.00
52513;DHT22;38422;53.172;6.974;2022-07-06T11:21:46;23.90;77.10
52513;DHT22;38422;53.172;6.974;2022-07-06T11:24:26;23.90;77.70
52513;DHT22;38422;53.172;6.974;2022-07-06T11:26:53;23.80;76.60
52513;DHT22;38422;53.172;6.974;2022-07-06T11:29:20;23.80;77.90
52513;DHT22;38422;53.172;6.974;2022-07-06T11:31:54;23.90;77.50
52513;DHT22;38422;53.172;6.974;2022-07-06T11:34:25;24.00;75.20
52513;DHT22;38422;53.172;6.974;2022-07-06T11:37:02;23.70;75.10
52513;DHT22;38422;53.172;6.974;2022-07-06T11:39:34;23.70;75.00
52513;DHT22;38422;53.172;6.974;2022-07-06T11:42:01;23.70;75.80
52513;DHT22;38422;53.172;6.974;2022-07-06T11:44:29;23.90;74.80
52513;DHT22;38422;53.172;6.974;2022-07-06T11:46:55;24.00;74.30
52513;DHT22;38422;53.172;6.974;2022-07-06T11:49:27;24.30;75.30
52513;DHT22;38422;53.172;6.974;2022-07-06T11:51:53;24.70;74.80
52513;DHT22;38422;53.172;6.974;2022-07-06T11:54:21;25.00;72.90
52513;DHT22;38422;53.172;6.974;2022-07-06T11:56:55;25.00;70.70
52513;DHT22;38422;53.172;6.974;2022-07-06T11:59:29;24.80;71.70
52513;DHT22;38422;53.172;6.974;2022-07-06T12:01:59;24.60;72.70
52513;DHT22;38422;53.172;6.974;2022-07-06T12:04:25;24.20;72.60
52513;DHT22;38422;53.172;6.974;2022-07-06T12:06:51;23.80;73.20
52513;DHT22;38422;53.172;6.974;2022-07-06T12:09:17;23.40;74.30
52513;DHT22;38422;53.172;6.974;2022-07-06T12:11:46;23.20;75.50
52513;DHT22;38422;53.172;6.974;2022-07-06T12:14:20;23.20;76.50
52513;DHT22;38422;53.172;6.974;2022-07-06T12:16:50;23.40;76.30
52513;DHT22;38422;53.172;6.974;2022-07-06T12:19:16;23.90;76.00
52513;DHT22;38422;53.172;6.974;2022-07-06T12:21:46;24.40;74.80
52513;DHT22;38422;53.172;6.974;2022-07-06T12:24:24;24.30;73.20
52513;DHT22;38422;53.172;6.974;2022-07-06T12:26:51;24.20;72.70
52513;DHT22;38422;53.172;6.974;2022-07-06T12:29:17;24.00;74.10
52513;DHT22;38422;53.172;6.974;2022-07-06T12:31:54;23.90;74.50
52513;DHT22;38422;53.172;6.974;2022-07-06T12:34:24;23.90;74.30
52513;DHT22;38422;53.172;6.974;2022-07-06T12:36:55;24.30;74.30
52513;DHT22;38422;53.172;6.974;2022-07-06T12:39:28;24.80;73.80
52513;DHT22;38422;53.172;6.974;2022-07-06T12:42:04;25.40;72.60
52513;DHT22;38422;53.172;6.974;2022-07-06T12:44:45;25.60;71.70
52513;DHT22;38422;53.172;6.974;2022-07-06T12:47:11;25.50;67.70
52513;DHT22;38422;53.172;6.974;2022-07-06T12:49:38;25.30;69.60
52513;DHT22;38422;53.172;6.974;2022-07-06T12:54:49;25.20;71.20
52513;DHT22;38422;53.172;6.974;2022-07-06T12:57:18;25.40;69.50
52513;DHT22;38422;53.172;6.974;2022-07-06T13:00:03;25.70;70.80
52513;DHT22;38422;53.172;6.974;2022-07-06T13:02:32;25.30;69.40
52513;DHT22;38422;53.172;6.974;2022-07-06T13:05:02;24.80;68.40
52513;DHT22;38422;53.172;6.974;2022-07-06T13:07:29;24.30;69.70
52513;DHT22;38422;53.172;6.974;2022-07-06T13:09:57;24.10;70.40
52513;DHT22;38422;53.172;6.974;2022-07-06T13:12:23;24.00;70.90
52513;DHT22;38422;53.172;6.974;2022-07-06T13:14:49;24.10;70.90
52513;DHT22;38422;53.172;6.974;2022-07-06T13:17:15;24.00;71.10
52513;DHT22;38422;53.172;6.974;2022-07-06T13:19:41;23.90;70.40
52513;DHT22;38422;53.172;6.974;2022-07-06T13:22:07;23.50;70.50
52513;DHT22;38422;53.172;6.974;2022-07-06T13:24:33;23.30;71.10
52513;DHT22;38422;53.172;6.974;2022-07-06T13:26:59;23.10;71.90
52513;DHT22;38422;53.172;6.974;2022-07-06T13:29:25;22.90;72.60
52513;DHT22;38422;53.172;6.974;2022-07-06T13:31:50;22.80;73.00
52513;DHT22;38422;53.172;6.974;2022-07-06T13:34:16;22.90;73.50
52513;DHT22;38422;53.172;6.974;2022-07-06T13:36:42;23.00;73.70
52513;DHT22;38422;53.172;6.974;2022-07-06T13:39:08;23.10;73.70
52513;DHT22;38422;53.172;6.974;2022-07-06T13:41:35;23.30;73.40
52513;DHT22;38422;53.172;6.974;2022-07-06T13:44:01;23.30;73.00
52513;DHT22;38422;53.172;6.974;2022-07-06T13:46:28;22.90;73.20
52513;DHT22;38422;53.172;6.974;2022-07-06T13:48:54;22.60;73.70
52513;DHT22;38422;53.172;6.974;2022-07-06T13:51:19;22.30;74.40
52513;DHT22;38422;53.172;6.974;2022-07-06T13:53:45;22.30;75.10
52513;DHT22;38422;53.172;6.974;2022-07-06T13:56:12;22.30;75.30
52513;DHT22;38422;53.172;6.974;2022-07-06T13:58:38;22.40;75.20
52513;DHT22;38422;53.172;6.974;2022-07-06T14:01:04;22.60;74.90
52513;DHT22;38422;53.172;6.974;2022-07-06T14:03:30;22.70;75.00
52513;DHT22;38422;53.172;6.974;2022-07-06T14:05:57;22.90;74.50
52513;DHT22;38422;53.172;6.974;2022-07-06T14:08:23;22.80;74.20
52513;DHT22;38422;53.172;6.974;2022-07-06T14:10:49;22.90;74.10
52513;DHT22;38422;53.172;6.974;2022-07-06T14:13:15;23.00;74.10
52513;DHT22;38422;53.172;6.974;2022-07-06T14:15:40;22.80;73.70
52513;DHT22;38422;53.172;6.974;2022-07-06T14:18:06;22.60;73.70
52513;DHT22;38422;53.172;6.974;2022-07-06T14:20:32;22.40;73.80
52513;DHT22;38422;53.172;6.974;2022-07-06T14:22:57;22.30;74.40
52513;DHT22;38422;53.172;6.974;2022-07-06T14:25:23;22.10;75.00
52513;DHT22;38422;53.172;6.974;2022-07-06T14:27:49;22.00;75.50
52513;DHT22;38422;53.172;6.974;2022-07-06T14:30:14;21.90;76.10
52513;DHT22;38422;53.172;6.974;2022-07-06T14:32:40;21.80;76.50
52513;DHT22;38422;53.172;6.974;2022-07-06T14:35:06;21.70;76.50
52513;DHT22;38422;53.172;6.974;2022-07-06T14:37:31;21.60;76.80
52513;DHT22;38422;53.172;6.974;2022-07-06T14:39:57;21.70;77.20
52513;DHT22;38422;53.172;6.974;2022-07-06T14:42:22;21.70;77.50
52513;DHT22;38422;53.172;6.974;2022-07-06T14:44:48;21.70;77.70
52513;DHT22;38422;53.172;6.974;2022-07-06T14:47:14;21.80;78.10
52513;DHT22;38422;53.172;6.974;2022-07-06T14:49:40;21.80;78.60
52513;DHT22;38422;53.172;6.974;2022-07-06T14:52:06;21.70;78.30
52513;DHT22;38422;53.172;6.974;2022-07-06T14:54:31;21.60;78.30
52513;DHT22;38422;53.172;6.974;2022-07-06T14:56:57;21.50;78.60
52513;DHT22;38422;53.172;6.974;2022-07-06T14:59:23;21.40;78.90
52513;DHT22;38422;53.172;6.974;2022-07-06T15:01:48;21.30;79.10
52513;DHT22;38422;53.172;6.974;2022-07-06T15:04:14;21.00;79.40
52513;DHT22;38422;53.172;6.974;2022-07-06T15:06:39;20.90;79.70
52513;DHT22;38422;53.172;6.974;2022-07-06T15:09:05;20.90;79.80
52513;DHT22;38422;53.172;6.974;2022-07-06T15:11:31;20.90;80.00
52513;DHT22;38422;53.172;6.974;2022-07-06T15:13:57;20.90;80.20
52513;DHT22;38422;53.172;6.974;2022-07-06T15:16:23;21.00;80.40
52513;DHT22;38422;53.172;6.974;2022-07-06T15:18:51;20.90;80.90
52513;DHT22;38422;53.172;6.974;2022-07-06T15:21:17;21.00;81.00
52513;DHT22;38422;53.172;6.974;2022-07-06T15:23:42;20.80;81.00
52513;DHT22;38422;53.172;6.974;2022-07-06T15:26:08;20.80;81.10
52513;DHT22;38422;53.172;6.974;2022-07-06T15:28:34;20.80;81.00
52513;DHT22;38422;53.172;6.974;2022-07-06T15:30:59;20.90;81.20
52513;DHT22;38422;53.172;6.974;2022-07-06T15:33:25;20.90;81.60
52513;DHT22;38422;53.172;6.974;2022-07-06T15:35:51;21.00;81.60
52513;DHT22;38422;53.172;6.974;2022-07-06T15:38:17;21.00;81.80
52513;DHT22;38422;53.172;6.974;2022-07-06T15:40:43;20.80;81.60